sensor_id;sensor_type;location;lat;lon;timestamp;P1;durP1;ratioP1;P2;durP2;ratioP2
71572;SDS011;59408;51.032;9.410;2024-02-26T00:01:12;3.35;;;1.05;;
71572;SDS011;59408;51.032;9.410;2024-02-26T00:03:38;3.60;;;1.25;;
71572;SDS011;59408;51.032;9.410;2024-02-26T00:06:05;4.53;;;1.27;;
71572;SDS011;59408;51.032;9.410;2024-02-26T00:08:31;5.22;;;1.13;;
71572;SDS011;59408;51.032;9.410;2024-02-26T00:10:58;3.50;;;1.20;;
71572;SDS011;59408;51.032;9.410;2024-02-26T00:13:24;4.82;;;1.30;;
71572;SDS011;59408;51.032;9.410;2024-02-26T00:15:51;4.30;;;1.50;;
71572;SDS011;59408;51.032;9.410;2024-02-26T00:18:19;3.37;;;1.00;;
71572;SDS011;59408;51.032;9.410;2024-02-26T00:20:45;3.78;;;1.33;;
71572;SDS011;59408;51.032;9.410;2024-02-26T00:23:14;3.65;;;1.40;;
71572;SDS011;59408;51.032;9.410;2024-02-26T00:25:41;3.95;;;1.27;;
71572;SDS011;59408;51.032;9.410;2024-02-26T00:28:07;4.68;;;1.40;;
71572;SDS011;59408;51.032;9.410;2024-02-26T00:30:33;4.10;;;1.20;;
71572;SDS011;59408;51.032;9.410;2024-02-26T00:33:00;3.78;;;1.10;;
71572;SDS011;59408;51.032;9.410;2024-02-26T00:35:28;4.22;;;1.25;;
71572;SDS011;59408;51.032;9.410;2024-02-26T00:37:54;4.20;;;1.45;;
71572;SDS011;59408;51.032;9.410;2024-02-26T00:40:20;3.97;;;1.10;;
71572;SDS011;59408;51.032;9.410;2024-02-26T00:42:47;5.40;;;1.23;;
71572;SDS011;59408;51.032;9.410;2024-02-26T00:45:13;3.97;;;1.15;;
71572;SDS011;59408;51.032;9.410;2024-02-26T00:47:40;4.53;;;1.40;;
71572;SDS011;59408;51.032;9.410;2024-02-26T00:50:07;3.58;;;1.10;;
71572;SDS011;59408;51.032;9.410;2024-02-26T00:52:35;3.45;;;1.10;;
71572;SDS011;59408;51.032;9.410;2024-02-26T00:55:02;4.97;;;1.40;;
71572;SDS011;59408;51.032;9.410;2024-02-26T00:57:28;3.88;;;1.15;;
71572;SDS011;59408;51.032;9.410;2024-02-26T00:59:55;3.30;;;1.20;;
71572;SDS011;59408;51.032;9.410;2024-02-26T01:02:21;3.72;;;1.20;;
71572;SDS011;59408;51.032;9.410;2024-02-26T01:04:48;4.85;;;1.60;;
71572;SDS011;59408;51.032;9.410;2024-02-26T01:07:14;4.30;;;1.20;;
71572;SDS011;59408;51.032;9.410;2024-02-26T01:09:42;3.92;;;1.20;;
71572;SDS011;59408;51.032;9.410;2024-02-26T01:12:09;3.67;;;1.48;;
71572;SDS011;59408;51.032;9.410;2024-02-26T01:14:35;4.30;;;1.35;;
71572;SDS011;59408;51.032;9.410;2024-02-26T01:17:02;3.53;;;1.20;;
71572;SDS011;59408;51.032;9.410;2024-02-26T01:19:29;3.90;;;1.00;;
71572;SDS011;59408;51.032;9.410;2024-02-26T01:21:55;3.65;;;1.23;;
71572;SDS011;59408;51.032;9.410;2024-02-26T01:24:21;4.50;;;1.50;;
71572;SDS011;59408;51.032;9.410;2024-02-26T01:26:50;3.70;;;1.25;;
71572;SDS011;59408;51.032;9.410;2024-02-26T01:29:16;4.40;;;1.40;;
71572;SDS011;59408;51.032;9.410;2024-02-26T01:31:43;4.33;;;1.30;;
71572;SDS011;59408;51.032;9.410;2024-02-26T01:34:09;4.75;;;1.48;;
71572;SDS011;59408;51.032;9.410;2024-02-26T01:36:35;4.10;;;1.40;;
71572;SDS011;59408;51.032;9.410;2024-02-26T01:39:02;3.90;;;1.30;;
71572;SDS011;59408;51.032;9.410;2024-02-26T01:41:28;4.15;;;1.38;;
71572;SDS011;59408;51.032;9.410;2024-02-26T01:43:56;4.30;;;1.10;;
71572;SDS011;59408;51.032;9.410;2024-02-26T01:46:23;3.75;;;1.33;;
71572;SDS011;59408;51.032;9.410;2024-02-26T01:48:49;3.80;;;1.40;;
71572;SDS011;59408;51.032;9.410;2024-02-26T01:51:16;5.80;;;1.80;;
71572;SDS011;59408;51.032;9.410;2024-02-26T01:53:43;5.45;;;1.55;;
71572;SDS011;59408;51.032;9.410;2024-02-26T01:56:10;3.70;;;1.20;;
71572;SDS011;59408;51.032;9.410;2024-02-26T01:58:38;4.10;;;1.30;;
71572;SDS011;59408;51.032;9.410;2024-02-26T02:01:06;3.78;;;1.50;;
71572;SDS011;59408;51.032;9.410;2024-02-26T02:03:32;4.78;;;1.40;;
71572;SDS011;59408;51.032;9.410;2024-02-26T02:05:59;4.07;;;1.48;;
71572;SDS011;59408;51.032;9.410;2024-02-26T02:08:26;5.27;;;1.50;;
71572;SDS011;59408;51.032;9.410;2024-02-26T02:10:53;4.82;;;1.58;;
71572;SDS011;59408;51.032;9.410;2024-02-26T02:13:20;4.25;;;1.50;;
71572;SDS011;59408;51.032;9.410;2024-02-26T02:15:46;4.85;;;1.70;;
71572;SDS011;59408;51.032;9.410;2024-02-26T02:18:14;5.00;;;1.52;;
71572;SDS011;59408;51.032;9.410;2024-02-26T02:20:42;4.70;;;1.50;;
71572;SDS011;59408;51.032;9.410;2024-02-26T02:23:09;4.47;;;1.40;;
71572;SDS011;59408;51.032;9.410;2024-02-26T02:25:35;4.53;;;1.60;;
71572;SDS011;59408;51.032;9.410;2024-02-26T02:28:02;4.68;;;1.52;;
71572;SDS011;59408;51.032;9.410;2024-02-26T02:30:29;4.82;;;1.63;;
71572;SDS011;59408;51.032;9.410;2024-02-26T02:32:57;4.50;;;1.40;;
71572;SDS011;59408;51.032;9.410;2024-02-26T02:35:24;5.70;;;1.60;;
71572;SDS011;59408;51.032;9.410;2024-02-26T02:37:52;5.32;;;1.70;;
71572;SDS011;59408;51.032;9.410;2024-02-26T02:40:19;4.70;;;1.55;;
71572;SDS011;59408;51.032;9.410;2024-02-26T02:42:45;5.38;;;1.70;;
71572;SDS011;59408;51.032;9.410;2024-02-26T02:45:12;4.63;;;1.30;;
71572;SDS011;59408;51.032;9.410;2024-02-26T02:47:38;4.65;;;1.50;;
71572;SDS011;59408;51.032;9.410;2024-02-26T02:50:05;4.30;;;1.70;;
71572;SDS011;59408;51.032;9.410;2024-02-26T02:52:32;4.95;;;1.60;;
71572;SDS011;59408;51.032;9.410;2024-02-26T02:55:00;5.07;;;1.70;;
71572;SDS011;59408;51.032;9.410;2024-02-26T02:57:27;4.70;;;1.47;;
71572;SDS011;59408;51.032;9.410;2024-02-26T02:59:53;3.85;;;1.40;;
71572;SDS011;59408;51.032;9.410;2024-02-26T03:02:20;4.47;;;1.73;;
71572;SDS011;59408;51.032;9.410;2024-02-26T03:04:46;5.90;;;1.75;;
71572;SDS011;59408;51.032;9.410;2024-02-26T03:07:13;4.72;;;1.60;;
71572;SDS011;59408;51.032;9.410;2024-02-26T03:09:39;4.70;;;1.50;;
71572;SDS011;59408;51.032;9.410;2024-02-26T03:12:07;5.22;;;1.60;;
71572;SDS011;59408;51.032;9.410;2024-02-26T03:14:33;4.70;;;1.73;;
71572;SDS011;59408;51.032;9.410;2024-02-26T03:17:00;5.65;;;1.83;;
71572;SDS011;59408;51.032;9.410;2024-02-26T03:19:26;4.78;;;1.67;;
71572;SDS011;59408;51.032;9.410;2024-02-26T03:21:53;5.10;;;1.80;;
71572;SDS011;59408;51.032;9.410;2024-02-26T03:24:19;5.57;;;2.00;;
71572;SDS011;59408;51.032;9.410;2024-02-26T03:26:46;4.28;;;1.52;;
71572;SDS011;59408;51.032;9.410;2024-02-26T03:29:14;4.32;;;1.58;;
71572;SDS011;59408;51.032;9.410;2024-02-26T03:31:40;5.15;;;1.55;;
71572;SDS011;59408;51.032;9.410;2024-02-26T03:34:07;4.57;;;1.30;;
71572;SDS011;59408;51.032;9.410;2024-02-26T03:36:33;4.88;;;1.80;;
71572;SDS011;59408;51.032;9.410;2024-02-26T03:39:00;5.00;;;1.60;;
71572;SDS011;59408;51.032;9.410;2024-02-26T03:41:26;6.18;;;1.63;;
71572;SDS011;59408;51.032;9.410;2024-02-26T03:43:53;5.78;;;1.60;;
71572;SDS011;59408;51.032;9.410;2024-02-26T03:46:21;4.07;;;1.40;;
71572;SDS011;59408;51.032;9.410;2024-02-26T03:48:47;5.75;;;2.00;;
71572;SDS011;59408;51.032;9.410;2024-02-26T03:51:14;4.63;;;1.60;;
71572;SDS011;59408;51.032;9.410;2024-02-26T03:53:40;4.55;;;1.40;;
71572;SDS011;59408;51.032;9.410;2024-02-26T03:56:07;5.70;;;2.20;;
71572;SDS011;59408;51.032;9.410;2024-02-26T03:58:33;5.23;;;1.70;;
71572;SDS011;59408;51.032;9.410;2024-02-26T04:01:00;4.90;;;1.73;;
71572;SDS011;59408;51.032;9.410;2024-02-26T04:03:28;4.97;;;1.60;;
71572;SDS011;59408;51.032;9.410;2024-02-26T04:05:55;5.10;;;1.60;;
71572;SDS011;59408;51.032;9.410;2024-02-26T04:08:21;4.63;;;1.98;;
71572;SDS011;59408;51.032;9.410;2024-02-26T04:10:48;4.90;;;1.80;;
71572;SDS011;59408;51.032;9.410;2024-02-26T04:13:14;4.95;;;1.70;;
71572;SDS011;59408;51.032;9.410;2024-02-26T04:15:41;4.57;;;1.50;;
71572;SDS011;59408;51.032;9.410;2024-02-26T04:18:07;4.53;;;1.60;;
71572;SDS011;59408;51.032;9.410;2024-02-26T04:20:35;5.30;;;1.75;;
71572;SDS011;59408;51.032;9.410;2024-02-26T04:23:02;5.33;;;1.80;;
71572;SDS011;59408;51.032;9.410;2024-02-26T04:25:29;4.50;;;1.48;;
71572;SDS011;59408;51.032;9.410;2024-02-26T04:27:55;4.72;;;1.88;;
71572;SDS011;59408;51.032;9.410;2024-02-26T04:30:22;5.82;;;1.88;;
71572;SDS011;59408;51.032;9.410;2024-02-26T04:32:48;4.93;;;2.03;;
71572;SDS011;59408;51.032;9.410;2024-02-26T04:35:15;4.87;;;1.80;;
71572;SDS011;59408;51.032;9.410;2024-02-26T04:37:43;5.72;;;1.55;;
71572;SDS011;59408;51.032;9.410;2024-02-26T04:40:10;4.80;;;2.05;;
71572;SDS011;59408;51.032;9.410;2024-02-26T04:42:36;5.05;;;1.63;;
71572;SDS011;59408;51.032;9.410;2024-02-26T04:45:03;5.53;;;1.90;;
71572;SDS011;59408;51.032;9.410;2024-02-26T04:47:30;5.00;;;1.60;;
71572;SDS011;59408;51.032;9.410;2024-02-26T04:49:56;5.18;;;1.80;;
71572;SDS011;59408;51.032;9.410;2024-02-26T04:52:23;6.00;;;2.17;;
71572;SDS011;59408;51.032;9.410;2024-02-26T04:54:51;5.45;;;2.10;;
71572;SDS011;59408;51.032;9.410;2024-02-26T04:57:17;6.80;;;2.17;;
71572;SDS011;59408;51.032;9.410;2024-02-26T04:59:44;5.47;;;1.87;;
71572;SDS011;59408;51.032;9.410;2024-02-26T05:02:11;6.30;;;2.10;;
71572;SDS011;59408;51.032;9.410;2024-02-26T05:04:37;6.43;;;2.30;;
71572;SDS011;59408;51.032;9.410;2024-02-26T05:07:04;5.65;;;2.20;;
71572;SDS011;59408;51.032;9.410;2024-02-26T05:09:31;5.07;;;2.13;;
71572;SDS011;59408;51.032;9.410;2024-02-26T05:11:59;5.70;;;1.83;;
71572;SDS011;59408;51.032;9.410;2024-02-26T05:14:25;5.78;;;2.20;;
71572;SDS011;59408;51.032;9.410;2024-02-26T05:16:52;5.03;;;2.05;;
71572;SDS011;59408;51.032;9.410;2024-02-26T05:19:18;6.10;;;2.20;;
71572;SDS011;59408;51.032;9.410;2024-02-26T05:21:45;6.55;;;2.50;;
71572;SDS011;59408;51.032;9.410;2024-02-26T05:24:12;6.07;;;2.30;;
71572;SDS011;59408;51.032;9.410;2024-02-26T05:26:38;7.80;;;2.45;;
71572;SDS011;59408;51.032;9.410;2024-02-26T05:29:06;5.68;;;2.58;;
71572;SDS011;59408;51.032;9.410;2024-02-26T05:31:32;5.53;;;2.25;;
71572;SDS011;59408;51.032;9.410;2024-02-26T05:33:59;6.68;;;2.50;;
71572;SDS011;59408;51.032;9.410;2024-02-26T05:36:26;5.20;;;2.10;;
71572;SDS011;59408;51.032;9.410;2024-02-26T05:38:52;6.32;;;2.53;;
71572;SDS011;59408;51.032;9.410;2024-02-26T05:41:19;7.10;;;2.45;;
71572;SDS011;59408;51.032;9.410;2024-02-26T05:43:45;6.40;;;2.33;;
71572;SDS011;59408;51.032;9.410;2024-02-26T05:46:13;5.97;;;2.42;;
71572;SDS011;59408;51.032;9.410;2024-02-26T05:48:42;5.93;;;2.40;;
71572;SDS011;59408;51.032;9.410;2024-02-26T05:51:09;6.53;;;2.45;;
71572;SDS011;59408;51.032;9.410;2024-02-26T05:53:35;5.78;;;2.40;;
71572;SDS011;59408;51.032;9.410;2024-02-26T05:56:02;7.53;;;2.45;;
71572;SDS011;59408;51.032;9.410;2024-02-26T05:58:29;5.90;;;2.67;;
71572;SDS011;59408;51.032;9.410;2024-02-26T06:00:55;6.87;;;2.67;;
71572;SDS011;59408;51.032;9.410;2024-02-26T06:03:23;6.65;;;2.55;;
71572;SDS011;59408;51.032;9.410;2024-02-26T06:05:50;6.28;;;2.53;;
71572;SDS011;59408;51.032;9.410;2024-02-26T06:08:16;5.72;;;2.30;;
71572;SDS011;59408;51.032;9.410;2024-02-26T06:10:43;6.82;;;2.65;;
71572;SDS011;59408;51.032;9.410;2024-02-26T06:13:09;5.60;;;2.33;;
71572;SDS011;59408;51.032;9.410;2024-02-26T06:15:36;7.07;;;2.53;;
71572;SDS011;59408;51.032;9.410;2024-02-26T06:18:02;6.32;;;2.75;;
71572;SDS011;59408;51.032;9.410;2024-02-26T06:20:30;6.00;;;2.58;;
71572;SDS011;59408;51.032;9.410;2024-02-26T06:22:56;6.07;;;2.47;;
71572;SDS011;59408;51.032;9.410;2024-02-26T06:25:23;7.27;;;2.80;;
71572;SDS011;59408;51.032;9.410;2024-02-26T06:27:50;6.55;;;3.00;;
71572;SDS011;59408;51.032;9.410;2024-02-26T06:30:16;8.10;;;3.20;;
71572;SDS011;59408;51.032;9.410;2024-02-26T06:32:43;7.15;;;3.00;;
71572;SDS011;59408;51.032;9.410;2024-02-26T06:35:09;7.57;;;3.10;;
71572;SDS011;59408;51.032;9.410;2024-02-26T06:37:37;7.03;;;3.00;;
71572;SDS011;59408;51.032;9.410;2024-02-26T06:40:04;7.47;;;3.00;;
71572;SDS011;59408;51.032;9.410;2024-02-26T06:42:32;7.05;;;3.05;;
71572;SDS011;59408;51.032;9.410;2024-02-26T06:44:58;9.23;;;3.47;;
71572;SDS011;59408;51.032;9.410;2024-02-26T06:47:25;7.40;;;3.38;;
71572;SDS011;59408;51.032;9.410;2024-02-26T06:49:51;11.17;;;4.17;;
71572;SDS011;59408;51.032;9.410;2024-02-26T06:52:18;9.45;;;3.85;;
71572;SDS011;59408;51.032;9.410;2024-02-26T06:54:46;7.68;;;3.15;;
71572;SDS011;59408;51.032;9.410;2024-02-26T06:57:13;7.57;;;3.33;;
71572;SDS011;59408;51.032;9.410;2024-02-26T06:59:40;8.05;;;3.17;;
71572;SDS011;59408;51.032;9.410;2024-02-26T07:02:06;8.03;;;3.50;;
71572;SDS011;59408;51.032;9.410;2024-02-26T07:04:32;8.43;;;3.38;;
71572;SDS011;59408;51.032;9.410;2024-02-26T07:06:59;7.70;;;3.38;;
71572;SDS011;59408;51.032;9.410;2024-02-26T07:09:26;8.48;;;3.72;;
71572;SDS011;59408;51.032;9.410;2024-02-26T07:11:53;8.90;;;3.50;;
71572;SDS011;59408;51.032;9.410;2024-02-26T07:14:22;8.37;;;3.67;;
71572;SDS011;59408;51.032;9.410;2024-02-26T07:16:48;7.75;;;3.28;;
71572;SDS011;59408;51.032;9.410;2024-02-26T07:19:15;9.15;;;3.65;;
71572;SDS011;59408;51.032;9.410;2024-02-26T07:21:41;8.27;;;3.67;;
71572;SDS011;59408;51.032;9.410;2024-02-26T07:24:08;9.02;;;4.10;;
71572;SDS011;59408;51.032;9.410;2024-02-26T07:26:35;8.43;;;3.63;;
71572;SDS011;59408;51.032;9.410;2024-02-26T07:29:02;8.63;;;3.53;;
71572;SDS011;59408;51.032;9.410;2024-02-26T07:31:29;9.95;;;4.35;;
71572;SDS011;59408;51.032;9.410;2024-02-26T07:33:55;9.43;;;4.00;;
71572;SDS011;59408;51.032;9.410;2024-02-26T07:36:22;9.48;;;4.18;;
71572;SDS011;59408;51.032;9.410;2024-02-26T07:38:48;9.43;;;4.10;;
71572;SDS011;59408;51.032;9.410;2024-02-26T07:41:15;10.40;;;4.30;;
71572;SDS011;59408;51.032;9.410;2024-02-26T07:43:42;8.77;;;3.92;;
71572;SDS011;59408;51.032;9.410;2024-02-26T07:46:12;10.57;;;4.53;;
71572;SDS011;59408;51.032;9.410;2024-02-26T07:48:38;12.00;;;5.10;;
71572;SDS011;59408;51.032;9.410;2024-02-26T07:51:05;10.40;;;4.63;;
71572;SDS011;59408;51.032;9.410;2024-02-26T07:53:31;10.02;;;4.75;;
71572;SDS011;59408;51.032;9.410;2024-02-26T07:55:58;9.18;;;4.25;;
71572;SDS011;59408;51.032;9.410;2024-02-26T07:58:24;11.43;;;4.90;;
71572;SDS011;59408;51.032;9.410;2024-02-26T08:00:51;13.40;;;5.10;;
71572;SDS011;59408;51.032;9.410;2024-02-26T08:03:19;11.70;;;5.30;;
71572;SDS011;59408;51.032;9.410;2024-02-26T08:05:46;10.93;;;4.60;;
71572;SDS011;59408;51.032;9.410;2024-02-26T08:08:12;12.27;;;5.72;;
71572;SDS011;59408;51.032;9.410;2024-02-26T08:10:39;12.82;;;5.65;;
71572;SDS011;59408;51.032;9.410;2024-02-26T08:13:05;11.45;;;5.38;;
71572;SDS011;59408;51.032;9.410;2024-02-26T08:15:32;12.10;;;4.70;;
71572;SDS011;59408;51.032;9.410;2024-02-26T08:17:58;11.63;;;5.35;;
71572;SDS011;59408;51.032;9.410;2024-02-26T08:20:26;11.93;;;5.30;;
71572;SDS011;59408;51.032;9.410;2024-02-26T08:22:53;12.35;;;5.65;;
71572;SDS011;59408;51.032;9.410;2024-02-26T08:25:19;13.38;;;5.68;;
71572;SDS011;59408;51.032;9.410;2024-02-26T08:27:46;15.97;;;7.37;;
71572;SDS011;59408;51.032;9.410;2024-02-26T08:30:12;13.48;;;6.35;;
71572;SDS011;59408;51.032;9.410;2024-02-26T08:32:40;13.70;;;6.47;;
71572;SDS011;59408;51.032;9.410;2024-02-26T08:35:06;11.40;;;5.30;;
71572;SDS011;59408;51.032;9.410;2024-02-26T08:37:34;13.60;;;5.80;;
71572;SDS011;59408;51.032;9.410;2024-02-26T08:40:01;13.50;;;5.83;;
71572;SDS011;59408;51.032;9.410;2024-02-26T08:42:31;12.57;;;5.72;;
71572;SDS011;59408;51.032;9.410;2024-02-26T08:44:58;12.30;;;6.18;;
71572;SDS011;59408;51.032;9.410;2024-02-26T08:47:24;11.85;;;5.93;;
71572;SDS011;59408;51.032;9.410;2024-02-26T08:49:51;13.88;;;6.03;;
71572;SDS011;59408;51.032;9.410;2024-02-26T08:52:17;13.20;;;5.57;;
71572;SDS011;59408;51.032;9.410;2024-02-26T08:54:45;12.43;;;5.28;;
71572;SDS011;59408;51.032;9.410;2024-02-26T08:57:12;14.82;;;5.68;;
71572;SDS011;59408;51.032;9.410;2024-02-26T08:59:38;13.57;;;5.75;;
71572;SDS011;59408;51.032;9.410;2024-02-26T09:02:05;10.88;;;5.40;;
71572;SDS011;59408;51.032;9.410;2024-02-26T09:04:31;14.93;;;6.07;;
71572;SDS011;59408;51.032;9.410;2024-02-26T09:06:58;12.40;;;5.45;;
71572;SDS011;59408;51.032;9.410;2024-02-26T09:09:24;13.73;;;5.85;;
71572;SDS011;59408;51.032;9.410;2024-02-26T09:11:52;12.93;;;6.10;;
71572;SDS011;59408;51.032;9.410;2024-02-26T09:14:19;12.07;;;5.80;;
71572;SDS011;59408;51.032;9.410;2024-02-26T09:16:45;14.70;;;6.30;;
71572;SDS011;59408;51.032;9.410;2024-02-26T09:19:12;13.05;;;5.35;;
71572;SDS011;59408;51.032;9.410;2024-02-26T09:21:41;13.63;;;6.03;;
71572;SDS011;59408;51.032;9.410;2024-02-26T09:24:08;12.43;;;5.70;;
71572;SDS011;59408;51.032;9.410;2024-02-26T09:26:35;14.10;;;6.55;;
71572;SDS011;59408;51.032;9.410;2024-02-26T09:29:03;14.87;;;6.27;;
71572;SDS011;59408;51.032;9.410;2024-02-26T09:31:29;14.80;;;6.30;;
71572;SDS011;59408;51.032;9.410;2024-02-26T09:33:56;16.35;;;7.38;;
71572;SDS011;59408;51.032;9.410;2024-02-26T09:36:27;13.63;;;6.25;;
71572;SDS011;59408;51.032;9.410;2024-02-26T09:38:54;12.80;;;6.30;;
71572;SDS011;59408;51.032;9.410;2024-02-26T09:41:27;13.43;;;5.87;;
71572;SDS011;59408;51.032;9.410;2024-02-26T09:43:55;13.18;;;5.47;;
71572;SDS011;59408;51.032;9.410;2024-02-26T09:46:24;12.00;;;5.82;;
71572;SDS011;59408;51.032;9.410;2024-02-26T09:48:51;13.05;;;5.88;;
71572;SDS011;59408;51.032;9.410;2024-02-26T09:51:19;12.27;;;5.97;;
71572;SDS011;59408;51.032;9.410;2024-02-26T09:53:48;12.37;;;6.03;;
71572;SDS011;59408;51.032;9.410;2024-02-26T09:56:18;13.13;;;5.70;;
71572;SDS011;59408;51.032;9.410;2024-02-26T09:58:44;13.88;;;6.13;;
71572;SDS011;59408;51.032;9.410;2024-02-26T10:01:13;12.63;;;5.80;;
71572;SDS011;59408;51.032;9.410;2024-02-26T10:03:46;12.60;;;5.70;;
71572;SDS011;59408;51.032;9.410;2024-02-26T10:06:17;12.27;;;5.43;;
71572;SDS011;59408;51.032;9.410;2024-02-26T10:08:44;12.38;;;5.65;;
71572;SDS011;59408;51.032;9.410;2024-02-26T10:11:11;11.40;;;5.65;;
71572;SDS011;59408;51.032;9.410;2024-02-26T10:13:41;10.90;;;5.10;;
71572;SDS011;59408;51.032;9.410;2024-02-26T10:16:07;11.32;;;5.38;;
71572;SDS011;59408;51.032;9.410;2024-02-26T10:18:47;12.53;;;5.27;;
71572;SDS011;59408;51.032;9.410;2024-02-26T10:21:17;11.93;;;5.28;;
71572;SDS011;59408;51.032;9.410;2024-02-26T10:23:46;12.60;;;5.45;;
71572;SDS011;59408;51.032;9.410;2024-02-26T10:26:13;10.07;;;4.72;;
71572;SDS011;59408;51.032;9.410;2024-02-26T10:28:41;10.25;;;4.22;;
71572;SDS011;59408;51.032;9.410;2024-02-26T10:31:08;10.23;;;4.40;;
71572;SDS011;59408;51.032;9.410;2024-02-26T10:33:35;9.43;;;4.28;;
71572;SDS011;59408;51.032;9.410;2024-02-26T10:36:09;9.98;;;4.95;;
71572;SDS011;59408;51.032;9.410;2024-02-26T10:38:36;10.15;;;4.60;;
71572;SDS011;59408;51.032;9.410;2024-02-26T10:41:03;11.40;;;5.22;;
71572;SDS011;59408;51.032;9.410;2024-02-26T10:43:30;11.17;;;4.30;;
71572;SDS011;59408;51.032;9.410;2024-02-26T10:45:57;9.38;;;4.68;;
71572;SDS011;59408;51.032;9.410;2024-02-26T10:48:25;9.57;;;4.65;;
71572;SDS011;59408;51.032;9.410;2024-02-26T10:50:52;11.05;;;4.93;;
71572;SDS011;59408;51.032;9.410;2024-02-26T10:53:20;11.48;;;5.22;;
71572;SDS011;59408;51.032;9.410;2024-02-26T10:55:48;10.60;;;4.77;;
71572;SDS011;59408;51.032;9.410;2024-02-26T10:58:16;10.63;;;4.45;;
71572;SDS011;59408;51.032;9.410;2024-02-26T11:00:43;10.02;;;4.85;;
71572;SDS011;59408;51.032;9.410;2024-02-26T11:03:10;10.25;;;4.30;;
71572;SDS011;59408;51.032;9.410;2024-02-26T11:05:37;10.13;;;4.78;;
71572;SDS011;59408;51.032;9.410;2024-02-26T11:08:06;10.53;;;4.90;;
71572;SDS011;59408;51.032;9.410;2024-02-26T11:10:34;9.85;;;4.63;;
71572;SDS011;59408;51.032;9.410;2024-02-26T11:13:02;9.63;;;4.47;;
71572;SDS011;59408;51.032;9.410;2024-02-26T11:15:31;11.27;;;4.80;;
71572;SDS011;59408;51.032;9.410;2024-02-26T11:17:58;9.23;;;4.45;;
71572;SDS011;59408;51.032;9.410;2024-02-26T11:20:26;10.13;;;4.80;;
71572;SDS011;59408;51.032;9.410;2024-02-26T11:22:54;9.52;;;4.30;;
71572;SDS011;59408;51.032;9.410;2024-02-26T11:25:21;9.15;;;4.18;;
71572;SDS011;59408;51.032;9.410;2024-02-26T11:27:50;9.70;;;4.55;;
71572;SDS011;59408;51.032;9.410;2024-02-26T11:30:21;10.65;;;4.40;;
71572;SDS011;59408;51.032;9.410;2024-02-26T11:32:48;8.57;;;4.13;;
71572;SDS011;59408;51.032;9.410;2024-02-26T11:35:15;10.73;;;4.75;;
71572;SDS011;59408;51.032;9.410;2024-02-26T11:37:50;9.02;;;4.13;;
71572;SDS011;59408;51.032;9.410;2024-02-26T11:40:17;10.40;;;4.10;;
71572;SDS011;59408;51.032;9.410;2024-02-26T11:42:44;9.23;;;4.28;;
71572;SDS011;59408;51.032;9.410;2024-02-26T11:48:12;10.45;;;4.97;;
71572;SDS011;59408;51.032;9.410;2024-02-26T11:50:40;11.18;;;4.93;;
71572;SDS011;59408;51.032;9.410;2024-02-26T11:53:20;10.38;;;5.03;;
71572;SDS011;59408;51.032;9.410;2024-02-26T11:55:48;12.00;;;5.03;;
71572;SDS011;59408;51.032;9.410;2024-02-26T11:58:35;11.07;;;5.03;;
71572;SDS011;59408;51.032;9.410;2024-02-26T12:01:03;12.23;;;5.18;;
71572;SDS011;59408;51.032;9.410;2024-02-26T12:03:31;10.48;;;4.63;;
71572;SDS011;59408;51.032;9.410;2024-02-26T12:05:58;13.05;;;5.80;;
71572;SDS011;59408;51.032;9.410;2024-02-26T12:08:24;12.05;;;5.68;;
71572;SDS011;59408;51.032;9.410;2024-02-26T12:10:51;11.50;;;5.60;;
71572;SDS011;59408;51.032;9.410;2024-02-26T12:13:20;12.77;;;5.72;;
71572;SDS011;59408;51.032;9.410;2024-02-26T12:15:56;13.75;;;6.00;;
71572;SDS011;59408;51.032;9.410;2024-02-26T12:18:24;13.50;;;5.75;;
71572;SDS011;59408;51.032;9.410;2024-02-26T12:20:58;13.20;;;5.70;;
71572;SDS011;59408;51.032;9.410;2024-02-26T12:23:25;13.13;;;5.80;;
71572;SDS011;59408;51.032;9.410;2024-02-26T12:25:52;13.45;;;5.78;;
71572;SDS011;59408;51.032;9.410;2024-02-26T12:28:18;15.55;;;7.03;;
71572;SDS011;59408;51.032;9.410;2024-02-26T12:30:45;14.68;;;6.63;;
71572;SDS011;59408;51.032;9.410;2024-02-26T12:33:11;16.13;;;7.63;;
71572;SDS011;59408;51.032;9.410;2024-02-26T12:35:39;15.20;;;7.07;;
71572;SDS011;59408;51.032;9.410;2024-02-26T12:38:07;17.05;;;8.00;;
71572;SDS011;59408;51.032;9.410;2024-02-26T12:40:34;15.18;;;6.95;;
71572;SDS011;59408;51.032;9.410;2024-02-26T12:43:00;13.57;;;7.03;;
71572;SDS011;59408;51.032;9.410;2024-02-26T12:45:27;13.60;;;6.88;;
71572;SDS011;59408;51.032;9.410;2024-02-26T12:47:53;15.20;;;6.97;;
71572;SDS011;59408;51.032;9.410;2024-02-26T12:50:20;18.08;;;9.15;;
71572;SDS011;59408;51.032;9.410;2024-02-26T12:52:47;14.48;;;7.53;;
71572;SDS011;59408;51.032;9.410;2024-02-26T12:55:16;15.43;;;7.40;;
71572;SDS011;59408;51.032;9.410;2024-02-26T12:57:45;15.13;;;7.40;;
71572;SDS011;59408;51.032;9.410;2024-02-26T13:00:13;15.90;;;7.20;;
71572;SDS011;59408;51.032;9.410;2024-02-26T13:02:42;15.55;;;7.90;;
71572;SDS011;59408;51.032;9.410;2024-02-26T13:05:10;15.95;;;7.97;;
71572;SDS011;59408;51.032;9.410;2024-02-26T13:07:40;16.30;;;8.10;;
71572;SDS011;59408;51.032;9.410;2024-02-26T13:10:07;15.57;;;7.32;;
71572;SDS011;59408;51.032;9.410;2024-02-26T13:12:36;14.67;;;7.50;;
71572;SDS011;59408;51.032;9.410;2024-02-26T13:15:02;16.33;;;7.72;;
71572;SDS011;59408;51.032;9.410;2024-02-26T13:17:31;14.43;;;7.15;;
71572;SDS011;59408;51.032;9.410;2024-02-26T13:19:58;14.73;;;7.40;;
71572;SDS011;59408;51.032;9.410;2024-02-26T13:22:24;13.93;;;7.20;;
71572;SDS011;59408;51.032;9.410;2024-02-26T13:24:54;13.97;;;7.07;;
71572;SDS011;59408;51.032;9.410;2024-02-26T13:27:21;12.52;;;6.15;;
71572;SDS011;59408;51.032;9.410;2024-02-26T13:29:50;15.38;;;6.90;;
71572;SDS011;59408;51.032;9.410;2024-02-26T13:32:28;15.20;;;7.90;;
71572;SDS011;59408;51.032;9.410;2024-02-26T13:35:03;13.90;;;6.82;;
71572;SDS011;59408;51.032;9.410;2024-02-26T13:37:30;16.23;;;7.50;;
71572;SDS011;59408;51.032;9.410;2024-02-26T13:39:57;15.30;;;6.93;;
71572;SDS011;59408;51.032;9.410;2024-02-26T13:42:23;14.95;;;6.78;;
71572;SDS011;59408;51.032;9.410;2024-02-26T13:44:51;12.32;;;6.32;;
71572;SDS011;59408;51.032;9.410;2024-02-26T13:47:18;13.32;;;6.68;;
71572;SDS011;59408;51.032;9.410;2024-02-26T13:49:44;12.63;;;6.03;;
71572;SDS011;59408;51.032;9.410;2024-02-26T13:52:11;11.90;;;5.85;;
71572;SDS011;59408;51.032;9.410;2024-02-26T13:54:37;13.18;;;6.22;;
71572;SDS011;59408;51.032;9.410;2024-02-26T13:57:04;13.50;;;6.25;;
71572;SDS011;59408;51.032;9.410;2024-02-26T13:59:30;12.00;;;6.18;;
71572;SDS011;59408;51.032;9.410;2024-02-26T14:02:02;12.23;;;5.57;;
71572;SDS011;59408;51.032;9.410;2024-02-26T14:04:28;13.15;;;5.63;;
71572;SDS011;59408;51.032;9.410;2024-02-26T14:06:55;11.98;;;6.45;;
71572;SDS011;59408;51.032;9.410;2024-02-26T14:09:22;13.23;;;6.32;;
71572;SDS011;59408;51.032;9.410;2024-02-26T14:11:58;13.50;;;6.28;;
71572;SDS011;59408;51.032;9.410;2024-02-26T14:14:24;13.23;;;6.00;;
71572;SDS011;59408;51.032;9.410;2024-02-26T14:16:51;12.48;;;6.18;;
71572;SDS011;59408;51.032;9.410;2024-02-26T14:19:19;13.50;;;6.70;;
71572;SDS011;59408;51.032;9.410;2024-02-26T14:21:45;12.52;;;6.32;;
71572;SDS011;59408;51.032;9.410;2024-02-26T14:24:12;14.63;;;7.00;;
71572;SDS011;59408;51.032;9.410;2024-02-26T14:26:39;15.10;;;6.30;;
71572;SDS011;59408;51.032;9.410;2024-02-26T14:29:06;13.27;;;6.38;;
71572;SDS011;59408;51.032;9.410;2024-02-26T14:31:33;13.05;;;6.50;;
71572;SDS011;59408;51.032;9.410;2024-02-26T14:33:59;13.68;;;6.80;;
71572;SDS011;59408;51.032;9.410;2024-02-26T14:36:28;14.55;;;7.13;;
71572;SDS011;59408;51.032;9.410;2024-02-26T14:38:54;13.77;;;7.20;;
71572;SDS011;59408;51.032;9.410;2024-02-26T14:41:21;13.35;;;6.85;;
71572;SDS011;59408;51.032;9.410;2024-02-26T14:43:47;14.35;;;7.13;;